createdAt,value
2018-08-06T00:00:31.424Z,1.73
2018-08-06T00:02:59.531Z,2.17
2018-08-06T00:05:27.648Z,1.77
2018-08-06T00:07:55.748Z,1.80
2018-08-06T00:10:24.986Z,1.70
2018-08-06T00:12:53.276Z,1.90
2018-08-06T00:15:21.392Z,1.93
2018-08-06T00:17:49.576Z,1.83
2018-08-06T00:20:17.728Z,1.90
2018-08-06T00:22:46.038Z,1.60
2018-08-06T00:25:15.438Z,1.83
2018-08-06T00:27:43.950Z,2.00
2018-08-06T00:30:14.260Z,1.80
2018-08-06T00:32:43.304Z,1.90
2018-08-06T00:35:11.936Z,1.80
2018-08-06T00:37:40.272Z,2.00
2018-08-06T00:40:12.508Z,1.80
2018-08-06T00:42:41.261Z,1.80
2018-08-06T00:45:11.025Z,1.70
2018-08-06T00:47:39.128Z,2.03
2018-08-06T00:50:07.841Z,1.70
2018-08-06T00:52:36.137Z,1.83
2018-08-06T00:55:05.480Z,1.80
2018-08-06T00:57:33.649Z,1.90
2018-08-06T01:00:01.739Z,1.80
2018-08-06T01:02:29.817Z,1.60
2018-08-06T01:04:57.903Z,1.90
2018-08-06T01:07:26.025Z,1.70
2018-08-06T01:09:54.111Z,1.77
2018-08-06T01:12:22.288Z,1.87
2018-08-06T01:14:50.417Z,1.90
2018-08-06T01:17:18.520Z,1.90
2018-08-06T01:19:46.686Z,2.03
2018-08-06T01:22:14.805Z,1.70
2018-08-06T01:24:43.040Z,1.90
2018-08-06T01:27:11.112Z,1.73
2018-08-06T01:29:39.265Z,1.73
2018-08-06T01:32:07.768Z,1.93
2018-08-06T01:34:35.887Z,1.90
2018-08-06T01:37:04.077Z,1.87
2018-08-06T01:39:32.161Z,1.67
2018-08-06T01:42:00.334Z,2.00
2018-08-06T01:44:28.302Z,1.83
2018-08-06T01:46:56.413Z,1.90
2018-08-06T01:49:24.748Z,1.77
2018-08-06T01:51:53.017Z,1.90
2018-08-06T01:54:21.172Z,1.90
2018-08-06T01:56:49.324Z,2.23
2018-08-06T01:59:17.496Z,1.77
2018-08-06T02:01:45.645Z,1.80
2018-08-06T02:04:13.776Z,2.00
2018-08-06T02:06:41.914Z,1.87
2018-08-06T02:09:10.075Z,1.70
2018-08-06T02:11:38.187Z,1.90
2018-08-06T02:14:06.279Z,1.70
2018-08-06T02:16:34.596Z,1.60
2018-08-06T02:19:02.724Z,1.77
2018-08-06T02:21:30.876Z,1.90
2018-08-06T02:23:58.955Z,1.67
2018-08-06T02:26:27.064Z,1.90
2018-08-06T02:28:55.151Z,1.70
2018-08-06T02:31:23.255Z,1.53
2018-08-06T02:33:51.359Z,1.90
2018-08-06T02:36:19.480Z,1.83
2018-08-06T02:38:47.608Z,1.73
2018-08-06T02:41:15.757Z,1.70
2018-08-06T02:43:43.889Z,2.00
2018-08-06T02:46:12.021Z,1.97
2018-08-06T02:48:40.144Z,2.00
2018-08-06T02:51:08.224Z,2.00
2018-08-06T02:53:36.300Z,1.77
2018-08-06T02:56:04.401Z,1.57
2018-08-06T02:58:32.509Z,1.80
2018-08-06T03:01:00.605Z,2.00
2018-08-06T03:03:28.773Z,2.20
2018-08-06T03:05:56.853Z,2.10
2018-08-06T03:08:24.948Z,2.00
2018-08-06T03:10:53.087Z,2.10
2018-08-06T03:13:21.266Z,2.10
2018-08-06T03:15:49.379Z,2.00
2018-08-06T03:18:17.549Z,2.17
2018-08-06T03:20:45.771Z,2.03
2018-08-06T03:23:13.917Z,2.10
2018-08-06T03:25:42.028Z,2.20
2018-08-06T03:28:10.178Z,1.80
2018-08-06T03:30:38.316Z,2.20
2018-08-06T03:33:06.455Z,1.90
2018-08-06T03:35:34.544Z,2.00
2018-08-06T03:38:02.732Z,2.07
2018-08-06T03:40:30.820Z,2.10
2018-08-06T03:42:58.882Z,2.20
2018-08-06T03:45:26.985Z,1.70
2018-08-06T03:47:55.083Z,1.90
2018-08-06T03:50:23.208Z,1.93
2018-08-06T03:52:51.407Z,2.30
2018-08-06T03:55:19.465Z,1.90
2018-08-06T03:57:47.621Z,2.23
2018-08-06T04:00:15.790Z,2.30
2018-08-06T04:02:44.338Z,1.57
2018-08-06T04:05:14.525Z,1.87
2018-08-06T04:07:44.404Z,2.23
2018-08-06T04:10:14.892Z,1.80
2018-08-06T04:12:43.011Z,2.23
2018-08-06T04:15:11.700Z,2.33
2018-08-06T04:17:40.398Z,1.90
2018-08-06T04:20:09.084Z,2.07
2018-08-06T04:22:37.195Z,2.17
2018-08-06T04:25:06.252Z,1.90
2018-08-06T04:27:34.372Z,2.13
2018-08-06T04:30:02.300Z,2.27
2018-08-06T04:32:30.402Z,2.20
2018-08-06T04:34:58.508Z,2.20
2018-08-06T04:37:26.598Z,2.27
2018-08-06T04:39:54.467Z,2.40
2018-08-06T04:42:22.591Z,2.40
2018-08-06T04:44:50.677Z,2.40
2018-08-06T04:47:18.871Z,2.40
2018-08-06T04:49:47.038Z,2.60
2018-08-06T04:52:15.649Z,2.40
2018-08-06T04:54:43.617Z,2.87
2018-08-06T04:57:11.522Z,2.67
2018-08-06T04:59:39.642Z,2.93
2018-08-06T05:02:07.784Z,2.80
2018-08-06T05:04:35.928Z,2.43
2018-08-06T05:07:04.130Z,2.40
2018-08-06T05:09:44.046Z,2.70
2018-08-06T05:12:12.892Z,3.10
2018-08-06T05:14:41.916Z,2.87
2018-08-06T05:17:10.111Z,2.93
2018-08-06T05:19:38.592Z,3.30
2018-08-06T05:22:07.200Z,3.20
2018-08-06T05:24:35.300Z,3.70
2018-08-06T05:27:03.526Z,3.70
2018-08-06T05:29:31.706Z,3.70
2018-08-06T05:31:59.830Z,3.73
2018-08-06T05:34:27.982Z,4.07
2018-08-06T05:36:56.068Z,3.80
2018-08-06T05:39:24.156Z,3.93
2018-08-06T05:41:52.277Z,4.07
2018-08-06T05:44:20.416Z,3.90
2018-08-06T05:46:48.540Z,4.40
2018-08-06T05:49:16.687Z,3.50
2018-08-06T05:51:44.958Z,3.93
2018-08-06T05:54:13.101Z,4.10
2018-08-06T05:56:40.978Z,3.90
2018-08-06T05:59:09.072Z,4.20
2018-08-06T06:01:37.228Z,3.90
2018-08-06T06:04:05.547Z,3.40
2018-08-06T06:06:33.664Z,4.20
2018-08-06T06:09:01.844Z,3.70
2018-08-06T06:11:29.932Z,3.87
2018-08-06T06:13:58.056Z,4.13
2018-08-06T06:16:26.135Z,3.70
2018-08-06T06:18:54.389Z,3.70
2018-08-06T06:21:22.540Z,3.40
2018-08-06T06:23:50.768Z,3.90
2018-08-06T06:26:19.060Z,3.90
2018-08-06T06:28:47.620Z,3.30
2018-08-06T06:31:16.100Z,3.30
2018-08-06T06:33:44.317Z,3.53
2018-08-06T06:36:12.580Z,3.10
2018-08-06T06:38:40.878Z,3.17
2018-08-06T06:41:09.116Z,3.80
2018-08-06T06:43:37.283Z,3.47
2018-08-06T06:46:05.412Z,3.33
2018-08-06T06:48:33.527Z,3.37
2018-08-06T06:51:01.644Z,3.30
2018-08-06T06:53:29.804Z,2.83
2018-08-06T06:55:57.955Z,3.00
2018-08-06T06:58:26.120Z,3.20
2018-08-06T07:00:54.224Z,4.00
2018-08-06T07:03:22.353Z,3.30
2018-08-06T07:05:50.515Z,2.97
2018-08-06T07:08:18.830Z,3.10
2018-08-06T07:10:47.004Z,2.90
2018-08-06T07:13:15.314Z,3.10
2018-08-06T07:15:43.651Z,2.70
2018-08-06T07:18:11.644Z,2.90
2018-08-06T07:20:39.740Z,2.40
2018-08-06T07:23:07.820Z,3.27
2018-08-06T07:25:35.939Z,2.43
2018-08-06T07:28:04.047Z,2.60
2018-08-06T07:30:32.177Z,2.83
2018-08-06T07:33:00.300Z,2.90
2018-08-06T07:35:28.472Z,2.77
2018-08-06T07:37:56.778Z,2.67
2018-08-06T07:40:24.905Z,3.00
2018-08-06T07:42:53.043Z,3.00
2018-08-06T07:45:21.420Z,3.07
2018-08-06T07:47:50.197Z,2.83
2018-08-06T07:50:19.659Z,2.97
2018-08-06T07:52:48.019Z,2.53
2018-08-06T07:55:16.330Z,2.63
2018-08-06T07:57:44.574Z,2.50
2018-08-06T08:00:14.397Z,2.90
2018-08-06T08:02:42.726Z,2.57
2018-08-06T08:05:12.654Z,2.67
2018-08-06T08:07:41.533Z,2.87
2018-08-06T08:10:12.071Z,3.00
2018-08-06T08:12:40.185Z,2.97
2018-08-06T08:15:13.748Z,3.10
2018-08-06T08:17:42.353Z,2.80
2018-08-06T08:20:13.447Z,2.87
2018-08-06T08:22:41.688Z,2.83
2018-08-06T08:25:12.532Z,2.90
2018-08-06T08:27:40.658Z,2.57
2018-08-06T08:30:10.433Z,3.27
2018-08-06T08:32:38.561Z,3.13
2018-08-06T08:35:06.907Z,3.17
2018-08-06T08:37:35.312Z,3.13
2018-08-06T08:40:04.800Z,2.97
2018-08-06T08:42:32.912Z,3.10
2018-08-06T08:45:01.049Z,2.80
2018-08-06T08:47:29.140Z,3.00
2018-08-06T08:49:57.279Z,2.50
2018-08-06T08:52:25.444Z,2.40
2018-08-06T08:54:53.374Z,2.37
2018-08-06T08:57:21.508Z,2.80
2018-08-06T08:59:49.620Z,2.43
2018-08-06T09:02:17.853Z,2.33
2018-08-06T09:04:46.045Z,2.50
2018-08-06T09:07:14.369Z,2.57
2018-08-06T09:09:42.689Z,2.70
2018-08-06T09:12:10.836Z,2.53
2018-08-06T09:14:38.936Z,2.60
2018-08-06T09:17:07.097Z,3.03
2018-08-06T09:19:35.319Z,2.50
2018-08-06T09:22:03.461Z,2.70
2018-08-06T09:24:31.596Z,2.40
2018-08-06T09:26:59.734Z,2.30
2018-08-06T09:29:27.861Z,2.40
2018-08-06T09:31:55.990Z,2.70
2018-08-06T09:34:24.187Z,2.93
2018-08-06T09:36:52.336Z,2.40
2018-08-06T09:39:20.502Z,2.20
2018-08-06T09:41:48.761Z,2.40
2018-08-06T09:44:16.907Z,2.23
2018-08-06T09:46:45.113Z,2.60
2018-08-06T09:49:13.695Z,2.57
2018-08-06T09:51:41.605Z,2.43
2018-08-06T09:54:09.775Z,2.63
2018-08-06T09:56:37.894Z,2.57
2018-08-06T09:59:06.008Z,2.60
2018-08-06T10:01:39.820Z,2.63
2018-08-06T10:04:08.041Z,2.47
2018-08-06T10:06:36.319Z,2.50
2018-08-06T10:09:07.163Z,2.70
2018-08-06T10:11:35.272Z,2.50
2018-08-06T10:14:03.365Z,2.53
2018-08-06T10:16:31.477Z,2.30
2018-08-06T10:18:59.629Z,2.70
2018-08-06T10:21:27.744Z,2.27
2018-08-06T10:23:55.844Z,2.37
2018-08-06T10:26:23.989Z,2.40
2018-08-06T10:28:52.152Z,2.50
2018-08-06T10:31:20.303Z,2.53
2018-08-06T10:33:48.432Z,2.43
2018-08-06T10:36:16.572Z,2.60
2018-08-06T10:38:44.776Z,2.30
2018-08-06T10:41:12.981Z,2.10
2018-08-06T10:43:40.987Z,2.40
2018-08-06T10:46:09.079Z,2.50
2018-08-06T10:48:37.211Z,2.83
2018-08-06T10:51:05.328Z,2.70
2018-08-06T10:53:33.527Z,2.60
2018-08-06T10:56:01.690Z,2.80
2018-08-06T10:58:29.759Z,2.70
2018-08-06T11:00:57.887Z,2.60
2018-08-06T11:03:25.989Z,2.40
2018-08-06T11:05:54.280Z,2.50
2018-08-06T11:08:22.409Z,2.20
2018-08-06T11:10:50.516Z,2.80
2018-08-06T11:13:18.662Z,2.47
2018-08-06T11:15:47.140Z,2.50
2018-08-06T11:18:15.513Z,2.43
2018-08-06T11:20:43.792Z,2.20
2018-08-06T11:23:11.921Z,2.23
2018-08-06T11:25:40.038Z,2.13
2018-08-06T11:28:08.183Z,2.40
2018-08-06T11:30:36.311Z,2.33
2018-08-06T11:33:04.421Z,2.37
2018-08-06T11:35:32.550Z,2.40
2018-08-06T11:38:00.648Z,2.23
2018-08-06T11:40:28.809Z,2.20
2018-08-06T11:42:56.944Z,2.47
2018-08-06T11:45:25.049Z,2.13
2018-08-06T11:47:53.197Z,2.30
2018-08-06T11:50:21.404Z,2.37
2018-08-06T11:52:49.564Z,2.30
2018-08-06T11:55:17.764Z,2.40
2018-08-06T11:57:45.885Z,2.40
2018-08-06T12:00:17.084Z,2.37
2018-08-06T12:02:45.265Z,2.27
2018-08-06T12:05:13.610Z,2.23
2018-08-06T12:07:41.555Z,2.20
2018-08-06T12:10:12.748Z,2.30
2018-08-06T12:12:41.243Z,2.23
2018-08-06T12:15:10.155Z,2.00
2018-08-06T12:17:39.004Z,2.07
2018-08-06T12:20:09.844Z,2.20
2018-08-06T12:22:38.321Z,2.10
2018-08-06T12:25:07.578Z,2.10
2018-08-06T12:27:35.687Z,2.17
2018-08-06T12:30:04.705Z,2.17
2018-08-06T12:32:32.840Z,2.00
2018-08-06T12:35:00.948Z,1.87
2018-08-06T12:37:29.165Z,2.10
2018-08-06T12:39:57.283Z,2.10
2018-08-06T12:42:25.424Z,2.00
2018-08-06T12:44:53.520Z,1.90
2018-08-06T12:47:21.671Z,1.83
2018-08-06T12:49:49.575Z,2.00
2018-08-06T12:52:17.853Z,2.00
2018-08-06T12:54:46.287Z,1.77
2018-08-06T12:57:14.484Z,2.10
2018-08-06T12:59:42.686Z,1.80
2018-08-06T13:02:10.811Z,1.80
2018-08-06T13:04:38.912Z,1.83
2018-08-06T13:07:07.028Z,1.80
2018-08-06T13:09:35.121Z,1.90
2018-08-06T13:12:03.333Z,1.87
2018-08-06T13:14:31.228Z,1.83
2018-08-06T13:16:59.392Z,1.90
2018-08-06T13:19:27.502Z,1.90
2018-08-06T13:21:55.644Z,1.80
2018-08-06T13:24:23.784Z,1.80
2018-08-06T13:26:51.936Z,1.70
2018-08-06T13:29:20.056Z,1.57
2018-08-06T13:31:48.204Z,1.97
2018-08-06T13:34:16.501Z,1.57
2018-08-06T13:36:44.822Z,1.60
2018-08-06T13:39:13.232Z,1.80
2018-08-06T13:41:41.426Z,1.70
2018-08-06T13:44:09.721Z,1.70
2018-08-06T13:46:37.820Z,1.70
2018-08-06T13:49:06.106Z,1.60
2018-08-06T13:51:34.228Z,1.70
2018-08-06T13:54:02.352Z,1.90
2018-08-06T13:56:30.444Z,1.83
2018-08-06T13:58:58.547Z,1.60
2018-08-06T14:01:26.684Z,1.60
2018-08-06T14:03:55.220Z,1.70
2018-08-06T14:06:23.404Z,1.50
2018-08-06T14:08:51.548Z,1.70
2018-08-06T14:11:19.774Z,1.90
2018-08-06T14:13:47.925Z,1.60
2018-08-06T14:16:15.894Z,1.50
2018-08-06T14:18:44.108Z,1.60
2018-08-06T14:21:12.543Z,1.53
2018-08-06T14:23:40.624Z,1.73
2018-08-06T14:26:08.832Z,1.37
2018-08-06T14:28:36.931Z,1.40
2018-08-06T14:31:05.030Z,1.40
2018-08-06T14:33:33.150Z,1.70
2018-08-06T14:36:01.290Z,1.23
2018-08-06T14:38:29.440Z,1.30
2018-08-06T14:40:57.507Z,1.40
2018-08-06T14:43:25.878Z,1.50
2018-08-06T14:45:54.028Z,1.30
2018-08-06T14:48:24.465Z,1.50
2018-08-06T14:50:53.245Z,1.50
2018-08-06T14:53:21.942Z,1.30
2018-08-06T14:55:50.198Z,1.50
2018-08-06T14:58:18.388Z,1.40
2018-08-06T15:00:46.604Z,1.33
2018-08-06T15:03:14.941Z,1.50
2018-08-06T15:05:43.312Z,1.60
2018-08-06T15:08:11.218Z,1.43
2018-08-06T15:10:39.319Z,1.40
2018-08-06T15:13:07.447Z,1.40
2018-08-06T15:15:35.564Z,1.30
2018-08-06T15:18:03.671Z,1.50
2018-08-06T15:20:31.809Z,1.50
2018-08-06T15:22:59.792Z,1.37
2018-08-06T15:25:27.906Z,1.43
2018-08-06T15:27:56.021Z,1.40
2018-08-06T15:30:24.144Z,1.40
2018-08-06T15:32:52.261Z,1.20
2018-08-06T15:35:20.456Z,1.47
2018-08-06T15:37:48.589Z,1.27
2018-08-06T15:40:18.606Z,1.50
2018-08-06T15:42:48.754Z,1.37
2018-08-06T15:45:16.944Z,1.30
2018-08-06T15:47:45.857Z,1.40
2018-08-06T15:50:21.611Z,1.13
2018-08-06T15:52:49.832Z,1.33
2018-08-06T15:55:18.113Z,1.20
2018-08-06T15:57:46.256Z,1.33
2018-08-06T16:00:16.450Z,1.17
2018-08-06T16:02:45.239Z,1.33
2018-08-06T16:05:14.443Z,1.20
2018-08-06T16:07:42.668Z,1.30
2018-08-06T16:10:11.759Z,1.10
2018-08-06T16:12:39.899Z,1.17
2018-08-06T16:15:09.631Z,1.10
2018-08-06T16:17:38.201Z,1.30
2018-08-06T16:20:08.316Z,1.30
2018-08-06T16:22:36.419Z,1.17
2018-08-06T16:25:06.052Z,1.30
2018-08-06T16:27:34.357Z,1.30
2018-08-06T16:30:02.477Z,1.10
2018-08-06T16:32:30.577Z,1.40
2018-08-06T16:34:58.704Z,1.50
2018-08-06T16:37:26.792Z,1.30
2018-08-06T16:39:54.965Z,1.20
2018-08-06T16:42:23.090Z,1.10
2018-08-06T16:44:51.003Z,1.30
2018-08-06T16:47:19.160Z,1.40
2018-08-06T16:49:47.352Z,1.23
2018-08-06T16:52:15.631Z,1.50
2018-08-06T16:54:44.040Z,1.20
2018-08-06T16:57:12.278Z,1.23
2018-08-06T16:59:40.505Z,1.10
2018-08-06T17:02:08.612Z,1.17
2018-08-06T17:04:36.712Z,1.30
2018-08-06T17:07:04.876Z,1.47
2018-08-06T17:09:33.020Z,1.30
2018-08-06T17:12:01.132Z,1.30
2018-08-06T17:14:29.269Z,1.40
2018-08-06T17:16:57.345Z,1.13
2018-08-06T17:19:25.491Z,1.30
2018-08-06T17:21:53.575Z,1.47
2018-08-06T17:24:21.676Z,1.10
2018-08-06T17:26:49.860Z,1.27
2018-08-06T17:29:18.113Z,1.40
2018-08-06T17:31:46.280Z,1.40
2018-08-06T17:34:14.479Z,1.20
2018-08-06T17:36:42.556Z,1.30
2018-08-06T17:39:11.242Z,1.30
2018-08-06T17:41:39.400Z,1.10
2018-08-06T17:44:07.511Z,1.40
2018-08-06T17:46:35.953Z,1.23
2018-08-06T17:49:05.035Z,1.33
2018-08-06T17:51:33.199Z,1.40
2018-08-06T17:54:01.373Z,1.40
2018-08-06T17:56:29.479Z,1.40
2018-08-06T17:58:57.580Z,1.30
2018-08-06T18:01:25.721Z,1.43
2018-08-06T18:03:53.876Z,1.30
2018-08-06T18:06:22.001Z,1.20
2018-08-06T18:08:50.175Z,1.37
2018-08-06T18:11:18.324Z,1.43
2018-08-06T18:13:46.610Z,1.30
2018-08-06T18:16:14.885Z,1.30
2018-08-06T18:18:43.101Z,1.33
2018-08-06T18:21:11.200Z,1.40
2018-08-06T18:23:39.302Z,1.17
2018-08-06T18:26:07.412Z,1.30
2018-08-06T18:28:35.512Z,1.40
2018-08-06T18:31:03.449Z,1.40
2018-08-06T18:33:31.595Z,1.40
2018-08-06T18:35:59.681Z,1.40
2018-08-06T18:38:27.829Z,1.27
2018-08-06T18:40:55.920Z,1.27
2018-08-06T18:43:24.020Z,1.47
2018-08-06T18:45:52.145Z,1.27
2018-08-06T18:48:20.385Z,1.47
2018-08-06T18:50:48.300Z,1.50
2018-08-06T18:53:16.530Z,1.50
2018-08-06T18:55:44.732Z,1.50
2018-08-06T18:58:13.199Z,1.57
2018-08-06T19:00:41.344Z,1.40
2018-08-06T19:03:09.469Z,1.60
2018-08-06T19:05:37.591Z,1.70
2018-08-06T19:08:05.748Z,1.60
2018-08-06T19:10:33.876Z,1.70
2018-08-06T19:13:07.460Z,1.67
2018-08-06T19:15:35.655Z,1.60
2018-08-06T19:18:09.223Z,1.40
2018-08-06T19:20:37.340Z,1.83
2018-08-06T19:23:05.478Z,1.80
2018-08-06T19:25:33.758Z,1.60
2018-08-06T19:28:01.671Z,1.70
2018-08-06T19:30:35.249Z,1.70
2018-08-06T19:33:03.420Z,1.70
2018-08-06T19:35:31.617Z,1.50
2018-08-06T19:37:59.738Z,1.90
2018-08-06T19:40:28.048Z,1.70
2018-08-06T19:43:01.708Z,1.80
2018-08-06T19:45:29.766Z,1.90
2018-08-06T19:47:57.664Z,1.80
2018-08-06T19:50:31.403Z,2.00
2018-08-06T19:52:59.556Z,1.90
2018-08-06T19:55:33.369Z,1.80
2018-08-06T19:58:01.599Z,2.00
2018-08-06T20:00:29.728Z,2.00
2018-08-06T20:02:58.827Z,1.90
2018-08-06T20:05:26.977Z,1.90
2018-08-06T20:07:54.891Z,1.90
2018-08-06T20:10:23.135Z,2.10
2018-08-06T20:12:51.459Z,2.20
2018-08-06T20:15:20.345Z,2.00
2018-08-06T20:17:49.523Z,1.80
2018-08-06T20:20:17.727Z,1.90
2018-08-06T20:22:46.435Z,2.10
2018-08-06T20:25:17.016Z,2.03
2018-08-06T20:27:46.284Z,2.10
2018-08-06T20:30:16.076Z,2.10
2018-08-06T20:32:44.299Z,2.10
2018-08-06T20:35:14.437Z,2.07
2018-08-06T20:37:42.703Z,1.90
2018-08-06T20:40:11.385Z,1.90
2018-08-06T20:42:40.584Z,2.03
2018-08-06T20:45:11.987Z,2.60
2018-08-06T20:47:40.928Z,2.03
2018-08-06T20:50:12.508Z,2.30
2018-08-06T20:52:40.637Z,2.40
2018-08-06T20:55:09.461Z,2.23
2018-08-06T20:57:37.790Z,2.27
2018-08-06T21:00:06.320Z,2.10
2018-08-06T21:02:34.849Z,2.20
2018-08-06T21:05:02.906Z,2.43
2018-08-06T21:07:31.043Z,2.17
2018-08-06T21:09:59.164Z,2.50
2018-08-06T21:12:27.262Z,2.10
2018-08-06T21:14:55.189Z,2.20
2018-08-06T21:17:23.435Z,2.10
2018-08-06T21:19:51.566Z,2.20
2018-08-06T21:22:20.301Z,2.40
2018-08-06T21:24:48.814Z,2.40
2018-08-06T21:27:17.013Z,2.53
2018-08-06T21:29:45.418Z,2.20
2018-08-06T21:32:13.645Z,2.40
2018-08-06T21:34:41.851Z,2.30
2018-08-06T21:37:10.063Z,2.30
2018-08-06T21:39:38.170Z,2.23
2018-08-06T21:42:06.442Z,2.87
2018-08-06T21:44:34.613Z,2.60
2018-08-06T21:47:02.648Z,1.93
2018-08-06T21:49:30.779Z,2.30
2018-08-06T21:51:58.861Z,2.30
2018-08-06T21:54:27.614Z,2.37
2018-08-06T21:56:55.699Z,2.70
2018-08-06T21:59:23.794Z,2.60
2018-08-06T22:01:51.960Z,2.33
2018-08-06T22:04:20.133Z,2.37
2018-08-06T22:06:48.300Z,2.57
2018-08-06T22:09:16.558Z,2.20
2018-08-06T22:11:44.929Z,2.40
2018-08-06T22:14:13.117Z,2.43
2018-08-06T22:16:41.211Z,2.03
2018-08-06T22:19:10.308Z,2.57
2018-08-06T22:21:38.593Z,2.00
2018-08-06T22:24:07.307Z,2.40
2018-08-06T22:26:35.695Z,2.50
2018-08-06T22:29:03.982Z,2.20
2018-08-06T22:31:32.221Z,2.20
2018-08-06T22:34:00.410Z,2.20
2018-08-06T22:36:28.457Z,2.60
2018-08-06T22:38:56.573Z,2.20
2018-08-06T22:41:24.909Z,2.17
2018-08-06T22:43:53.052Z,2.27
2018-08-06T22:46:21.525Z,2.53
2018-08-06T22:48:49.644Z,2.60
2018-08-06T22:51:17.873Z,2.13
2018-08-06T22:53:46.052Z,2.47
2018-08-06T22:56:14.294Z,2.50
2018-08-06T22:58:42.465Z,2.50
2018-08-06T23:01:11.326Z,2.50
2018-08-06T23:03:39.448Z,2.40
2018-08-06T23:06:08.281Z,2.30
2018-08-06T23:08:36.492Z,2.57
2018-08-06T23:11:04.536Z,2.13
2018-08-06T23:13:32.660Z,2.43
2018-08-06T23:16:00.768Z,2.30
2018-08-06T23:18:28.881Z,2.67
2018-08-06T23:20:56.820Z,2.43
2018-08-06T23:23:24.932Z,2.40
2018-08-06T23:25:53.100Z,2.70
2018-08-06T23:28:21.298Z,2.50
2018-08-06T23:30:49.450Z,2.63
2018-08-06T23:33:17.849Z,2.20
2018-08-06T23:35:46.053Z,2.67
2018-08-06T23:38:14.329Z,2.40
2018-08-06T23:40:43.117Z,2.50
2018-08-06T23:43:11.292Z,2.77
2018-08-06T23:45:39.372Z,2.50
2018-08-06T23:48:07.479Z,2.67
2018-08-06T23:50:35.601Z,2.80
2018-08-06T23:53:03.707Z,2.80
2018-08-06T23:55:31.861Z,2.93
2018-08-06T23:58:00.038Z,2.53
